createdAt,value
2019-03-15T00:01:06.681Z,10.64
2019-03-15T00:03:35.660Z,10.63
2019-03-15T00:06:04.629Z,10.60
2019-03-15T00:08:33.585Z,10.61
2019-03-15T00:11:02.618Z,10.60
2019-03-15T00:13:31.661Z,10.58
2019-03-15T00:16:00.557Z,10.58
2019-03-15T00:18:29.347Z,10.59
2019-03-15T00:20:58.369Z,10.57
2019-03-15T00:23:27.271Z,10.57
2019-03-15T00:25:56.257Z,10.57
2019-03-15T00:28:25.129Z,10.56
2019-03-15T00:30:54.165Z,10.55
2019-03-15T00:33:23.080Z,10.55
2019-03-15T00:35:51.929Z,10.53
2019-03-15T00:38:20.851Z,10.53
2019-03-15T00:40:49.926Z,10.53
2019-03-15T00:43:18.899Z,10.54
2019-03-15T00:45:47.765Z,10.51
2019-03-15T00:48:16.851Z,10.51
2019-03-15T00:50:45.905Z,10.50
2019-03-15T00:53:14.939Z,10.49
2019-03-15T00:55:43.887Z,10.48
2019-03-15T00:58:13.216Z,10.48
2019-03-15T01:00:41.997Z,10.47
2019-03-15T01:03:10.989Z,10.48
2019-03-15T01:05:39.945Z,10.46
2019-03-15T01:08:08.886Z,10.46
2019-03-15T01:10:37.901Z,10.46
2019-03-15T01:13:07.114Z,10.45
2019-03-15T01:15:36.059Z,10.44
2019-03-15T01:18:05.065Z,10.45
2019-03-15T01:20:34.113Z,10.44
2019-03-15T01:23:02.971Z,10.42
2019-03-15T01:25:31.846Z,10.42
2019-03-15T01:28:00.781Z,10.43
2019-03-15T01:30:30.094Z,10.41
2019-03-15T01:32:59.131Z,10.41
2019-03-15T01:35:28.054Z,10.40
2019-03-15T01:37:57.173Z,10.40
2019-03-15T01:40:26.162Z,10.40
2019-03-15T01:42:55.295Z,10.39
2019-03-15T01:45:24.199Z,10.39
2019-03-15T01:47:53.244Z,10.39
2019-03-15T01:50:22.311Z,10.40
2019-03-15T01:52:51.354Z,10.38
2019-03-15T01:55:20.198Z,10.37
2019-03-15T01:57:49.256Z,10.38
2019-03-15T02:00:18.336Z,10.37
2019-03-15T02:02:48.494Z,10.36
2019-03-15T02:05:17.372Z,10.36
2019-03-15T02:07:46.454Z,10.36
2019-03-15T02:10:15.395Z,10.35
2019-03-15T02:12:44.400Z,10.34
2019-03-15T02:15:13.381Z,10.31
2019-03-15T02:17:42.298Z,10.33
2019-03-15T02:20:12.278Z,10.33
2019-03-15T02:22:41.337Z,10.32
2019-03-15T02:25:10.122Z,10.31
2019-03-15T02:27:39.212Z,10.31
2019-03-15T02:30:08.670Z,10.30
2019-03-15T02:32:39.347Z,10.31
2019-03-15T02:35:08.493Z,10.27
2019-03-15T02:37:37.498Z,10.30
2019-03-15T02:40:06.500Z,10.30
2019-03-15T02:42:35.576Z,10.29
2019-03-15T02:45:06.269Z,10.29
2019-03-15T02:47:35.557Z,10.30
2019-03-15T02:50:05.077Z,10.27
2019-03-15T02:52:34.192Z,10.29
2019-03-15T02:55:03.064Z,10.28
2019-03-15T02:57:31.985Z,10.28
2019-03-15T03:00:01.068Z,10.27
2019-03-15T03:02:30.116Z,10.28
2019-03-15T03:04:59.130Z,10.27
2019-03-15T03:07:28.149Z,10.27
2019-03-15T03:09:57.183Z,10.26
2019-03-15T03:12:46.809Z,10.26
2019-03-15T03:15:15.784Z,10.25
2019-03-15T03:20:32.667Z,10.25
2019-03-15T03:23:01.462Z,10.25
2019-03-15T03:25:30.313Z,10.25
2019-03-15T03:27:59.581Z,10.23
2019-03-15T03:30:30.270Z,10.24
2019-03-15T03:32:59.308Z,10.23
2019-03-15T03:35:28.278Z,10.24
2019-03-15T03:37:57.398Z,10.23
2019-03-15T03:40:26.367Z,10.23
2019-03-15T03:42:55.249Z,10.23
2019-03-15T03:45:24.302Z,10.22
2019-03-15T03:47:53.417Z,10.23
2019-03-15T03:50:22.320Z,10.23
2019-03-15T03:52:51.335Z,10.23
2019-03-15T03:55:20.191Z,10.22
2019-03-15T03:57:49.035Z,10.22
2019-03-15T04:00:17.907Z,10.22
2019-03-15T04:02:46.896Z,10.22
2019-03-15T04:05:15.692Z,10.22
2019-03-15T04:07:44.898Z,10.21
2019-03-15T04:10:13.824Z,10.22
2019-03-15T04:12:43.039Z,10.20
2019-03-15T04:15:12.089Z,10.19
2019-03-15T04:17:41.064Z,10.19
2019-03-15T04:20:10.173Z,10.19
2019-03-15T04:22:39.044Z,10.18
2019-03-15T04:25:08.248Z,10.18
2019-03-15T04:27:37.240Z,10.17
2019-03-15T04:30:08.765Z,10.17
2019-03-15T04:32:37.195Z,10.17
2019-03-15T04:35:06.271Z,10.18
2019-03-15T04:37:35.126Z,10.17
2019-03-15T04:40:04.189Z,10.17
2019-03-15T04:42:33.173Z,10.16
2019-03-15T04:45:02.213Z,10.15
2019-03-15T04:47:31.148Z,10.16
2019-03-15T04:50:00.169Z,10.16
2019-03-15T04:52:29.226Z,10.17
2019-03-15T04:54:58.262Z,10.14
2019-03-15T04:57:27.274Z,10.15
2019-03-15T04:59:56.277Z,10.14
2019-03-15T05:02:25.280Z,10.14
2019-03-15T05:04:54.363Z,10.13
2019-03-15T05:07:23.271Z,10.15
2019-03-15T05:09:52.179Z,10.14
2019-03-15T05:12:21.040Z,10.11
2019-03-15T05:14:50.314Z,10.13
2019-03-15T05:17:19.252Z,10.12
2019-03-15T05:19:48.202Z,10.16
2019-03-15T05:22:17.189Z,10.20
2019-03-15T05:24:46.524Z,10.22
2019-03-15T05:27:15.430Z,10.24
2019-03-15T05:29:44.445Z,10.27
2019-03-15T05:32:13.493Z,10.30
2019-03-15T05:34:42.523Z,10.33
2019-03-15T05:37:11.499Z,10.34
2019-03-15T05:39:43.547Z,10.37
2019-03-15T05:42:12.457Z,10.39
2019-03-15T05:44:41.588Z,10.42
2019-03-15T05:47:10.632Z,10.44
2019-03-15T05:49:39.557Z,10.46
2019-03-15T05:52:08.598Z,10.48
2019-03-15T05:54:37.635Z,10.50
2019-03-15T05:57:06.626Z,10.52
2019-03-15T05:59:35.642Z,10.54
2019-03-15T06:02:04.763Z,10.55
2019-03-15T06:04:33.737Z,10.57
2019-03-15T06:07:02.788Z,10.59
2019-03-15T06:09:31.816Z,10.60
2019-03-15T06:12:00.654Z,10.60
2019-03-15T06:14:29.646Z,10.61
2019-03-15T06:16:58.717Z,10.62
2019-03-15T06:19:27.730Z,10.63
2019-03-15T06:21:56.732Z,10.65
2019-03-15T06:24:25.733Z,10.67
2019-03-15T06:26:54.773Z,10.67
2019-03-15T06:29:23.754Z,10.68
2019-03-15T06:31:52.755Z,10.70
2019-03-15T06:34:21.787Z,10.70
2019-03-15T06:36:50.767Z,10.71
2019-03-15T06:39:19.812Z,10.73
2019-03-15T06:41:48.772Z,10.74
2019-03-15T06:44:17.886Z,10.75
2019-03-15T06:46:46.895Z,10.78
2019-03-15T06:49:16.707Z,10.80
2019-03-15T06:51:45.819Z,10.81
2019-03-15T06:54:14.868Z,10.83
2019-03-15T06:56:43.823Z,10.84
2019-03-15T06:59:12.792Z,10.87
2019-03-15T07:01:41.946Z,10.88
2019-03-15T07:04:10.981Z,10.89
2019-03-15T07:06:39.955Z,10.90
2019-03-15T07:09:08.870Z,10.92
2019-03-15T07:11:37.743Z,10.92
2019-03-15T07:14:06.780Z,10.93
2019-03-15T07:16:38.137Z,10.93
2019-03-15T07:19:06.677Z,10.94
2019-03-15T07:21:36.846Z,10.94
2019-03-15T07:24:06.156Z,10.96
2019-03-15T07:26:35.149Z,10.98
2019-03-15T07:29:04.138Z,11.00
2019-03-15T07:31:32.981Z,11.01
2019-03-15T07:34:02.096Z,11.02
2019-03-15T07:36:31.092Z,11.04
2019-03-15T07:39:00.143Z,11.06
2019-03-15T07:41:29.150Z,11.07
2019-03-15T07:43:58.132Z,11.07
2019-03-15T07:46:27.108Z,11.08
2019-03-15T07:48:56.258Z,11.09
2019-03-15T07:51:25.129Z,11.08
2019-03-15T07:53:54.190Z,11.10
2019-03-15T07:56:23.268Z,11.14
2019-03-15T07:58:52.317Z,11.16
2019-03-15T08:01:21.297Z,11.18
2019-03-15T08:03:50.301Z,11.19
2019-03-15T08:06:19.782Z,11.19
2019-03-15T08:09:11.584Z,11.20
2019-03-15T08:11:40.595Z,11.21
2019-03-15T08:14:09.527Z,11.21
2019-03-15T08:16:38.394Z,11.21
2019-03-15T08:19:07.234Z,11.22
2019-03-15T08:21:36.368Z,11.22
2019-03-15T08:24:06.382Z,11.22
2019-03-15T08:26:35.238Z,11.23
2019-03-15T08:29:04.033Z,11.24
2019-03-15T08:31:33.089Z,11.30
2019-03-15T08:34:02.055Z,11.30
2019-03-15T08:36:50.074Z,11.30
2019-03-15T08:39:19.087Z,11.28
2019-03-15T08:41:48.108Z,11.30
2019-03-15T08:44:17.002Z,11.37
2019-03-15T08:49:34.418Z,11.37
2019-03-15T08:52:04.274Z,11.41
2019-03-15T08:54:33.178Z,11.45
2019-03-15T08:57:02.061Z,11.56
2019-03-15T08:59:56.816Z,11.75
2019-03-15T09:02:22.091Z,11.94
2019-03-15T09:04:51.089Z,12.09
2019-03-15T09:07:20.045Z,12.10
2019-03-15T09:09:49.019Z,12.06
2019-03-15T09:12:18.061Z,12.02
2019-03-15T09:14:47.018Z,11.97
2019-03-15T09:17:16.150Z,11.94
2019-03-15T09:19:46.623Z,11.92
2019-03-15T09:22:15.679Z,11.91
2019-03-15T09:24:44.650Z,11.88
2019-03-15T09:27:13.596Z,11.91
2019-03-15T09:29:42.569Z,11.90
2019-03-15T09:32:11.460Z,11.92
2019-03-15T09:34:40.680Z,11.91
2019-03-15T09:37:09.738Z,11.92
2019-03-15T09:39:38.783Z,11.93
2019-03-15T09:42:07.702Z,11.95
2019-03-15T09:44:37.679Z,11.96
2019-03-15T09:47:06.801Z,11.97
2019-03-15T09:49:35.712Z,11.97
2019-03-15T09:52:04.746Z,11.98
2019-03-15T09:54:33.826Z,11.97
2019-03-15T09:57:02.682Z,11.98
2019-03-15T09:59:31.799Z,11.99
2019-03-15T10:02:00.838Z,11.99
2019-03-15T10:04:29.770Z,12.00
2019-03-15T10:06:58.984Z,12.01
2019-03-15T10:09:27.926Z,12.01
2019-03-15T10:11:56.875Z,12.00
2019-03-15T10:14:25.795Z,12.01
2019-03-15T10:16:54.582Z,12.00
2019-03-15T10:19:23.766Z,12.01
2019-03-15T10:21:52.598Z,12.06
2019-03-15T10:24:21.469Z,12.04
2019-03-15T10:26:50.419Z,12.03
2019-03-15T10:29:19.748Z,12.04
2019-03-15T10:31:49.036Z,12.03
2019-03-15T10:34:17.939Z,12.03
2019-03-15T10:36:46.973Z,12.03
2019-03-15T10:39:15.986Z,12.05
2019-03-15T10:41:45.047Z,12.05
2019-03-15T10:44:13.968Z,12.06
2019-03-15T10:46:43.005Z,12.05
2019-03-15T10:49:11.992Z,12.05
2019-03-15T10:51:41.003Z,12.05
2019-03-15T10:54:10.022Z,12.05
2019-03-15T10:56:39.058Z,12.05
2019-03-15T10:59:27.102Z,12.03
2019-03-15T11:01:56.121Z,12.05
2019-03-15T11:04:24.995Z,12.05
2019-03-15T11:06:54.093Z,12.05
2019-03-15T11:09:23.091Z,12.04
2019-03-15T11:11:52.349Z,12.04
2019-03-15T11:14:21.185Z,12.04
2019-03-15T11:16:50.077Z,12.07
2019-03-15T11:19:18.867Z,12.06
2019-03-15T11:21:47.756Z,12.06
2019-03-15T11:24:16.765Z,12.05
2019-03-15T11:26:45.638Z,12.05
2019-03-15T11:29:14.477Z,12.05
2019-03-15T11:31:43.321Z,12.06
2019-03-15T11:34:12.159Z,12.06
2019-03-15T11:36:41.172Z,12.06
2019-03-15T11:39:10.309Z,12.07
2019-03-15T11:41:39.185Z,12.10
2019-03-15T11:44:08.192Z,12.07
2019-03-15T11:46:37.210Z,12.08
2019-03-15T11:49:06.097Z,12.09
2019-03-15T11:51:35.233Z,12.09
2019-03-15T11:54:04.120Z,12.10
2019-03-15T11:56:33.017Z,12.10
2019-03-15T11:59:02.133Z,12.10
2019-03-15T12:01:31.264Z,12.12
2019-03-15T12:04:00.053Z,12.12
2019-03-15T12:06:29.148Z,12.12
2019-03-15T12:08:58.258Z,12.12
2019-03-15T12:11:28.166Z,12.12
2019-03-15T12:13:57.317Z,12.12
2019-03-15T12:16:26.194Z,12.12
2019-03-15T12:18:55.135Z,12.12
2019-03-15T12:21:24.036Z,12.13
2019-03-15T12:23:52.977Z,12.14
2019-03-15T12:26:21.950Z,12.15
2019-03-15T12:28:50.957Z,12.15
2019-03-15T12:31:19.978Z,12.16
2019-03-15T12:33:49.220Z,12.19
2019-03-15T12:36:18.566Z,12.20
2019-03-15T12:38:47.598Z,12.21
2019-03-15T12:41:16.584Z,12.23
2019-03-15T12:43:45.496Z,12.23
2019-03-15T12:46:14.366Z,12.25
2019-03-15T12:48:43.627Z,12.25
2019-03-15T12:51:12.642Z,12.27
2019-03-15T12:53:41.620Z,12.28
2019-03-15T12:56:11.214Z,12.30
2019-03-15T12:58:40.341Z,12.31
2019-03-15T13:01:09.229Z,12.37
2019-03-15T13:03:38.128Z,12.40
2019-03-15T13:06:27.726Z,12.44
2019-03-15T13:08:56.769Z,12.48
2019-03-15T13:11:25.780Z,12.50
2019-03-15T13:13:54.774Z,12.52
2019-03-15T13:16:23.751Z,12.53
2019-03-15T13:18:52.849Z,12.56
2019-03-15T13:21:21.832Z,12.60
2019-03-15T13:23:50.871Z,12.62
2019-03-15T13:26:19.836Z,12.62
2019-03-15T13:28:48.778Z,12.64
2019-03-15T13:31:17.699Z,12.65
2019-03-15T13:33:46.609Z,12.64
2019-03-15T13:36:15.598Z,12.63
2019-03-15T13:38:44.721Z,12.63
2019-03-15T13:41:13.623Z,12.62
2019-03-15T13:43:42.688Z,12.62
2019-03-15T13:46:11.914Z,12.59
2019-03-15T13:48:40.858Z,12.58
2019-03-15T13:51:09.925Z,12.57
2019-03-15T13:53:38.925Z,12.56
2019-03-15T13:56:07.947Z,12.55
2019-03-15T13:58:37.027Z,12.55
2019-03-15T14:01:05.953Z,12.54
2019-03-15T14:03:34.958Z,12.54
2019-03-15T14:06:04.009Z,12.53
2019-03-15T14:08:32.960Z,12.53
2019-03-15T14:11:02.050Z,12.53
2019-03-15T14:13:30.986Z,12.53
2019-03-15T14:16:01.665Z,12.53
2019-03-15T14:18:30.919Z,12.52
2019-03-15T14:20:59.939Z,12.50
2019-03-15T14:23:28.837Z,12.49
2019-03-15T14:25:58.044Z,12.49
2019-03-15T14:28:27.134Z,12.47
2019-03-15T14:30:56.098Z,12.46
2019-03-15T14:33:25.145Z,12.45
2019-03-15T14:35:54.106Z,12.44
2019-03-15T14:38:23.374Z,12.43
2019-03-15T14:40:52.712Z,12.42
2019-03-15T14:43:21.867Z,12.42
2019-03-15T14:45:51.141Z,12.41
2019-03-15T14:48:20.085Z,12.39
2019-03-15T14:50:49.245Z,12.39
2019-03-15T14:53:18.125Z,12.39
2019-03-15T14:55:47.018Z,12.37
2019-03-15T14:58:16.286Z,12.35
2019-03-15T15:00:45.326Z,12.34
2019-03-15T15:03:14.259Z,12.34
2019-03-15T15:05:43.290Z,12.32
2019-03-15T15:08:12.169Z,12.31
2019-03-15T15:10:41.304Z,12.30
2019-03-15T15:13:10.258Z,12.30
2019-03-15T15:15:39.136Z,12.28
2019-03-15T15:18:08.024Z,12.27
2019-03-15T15:20:37.039Z,12.28
2019-03-15T15:23:06.011Z,12.26
2019-03-15T15:25:35.165Z,12.25
2019-03-15T15:28:05.149Z,12.25
2019-03-15T15:30:34.178Z,12.24
2019-03-15T15:33:03.158Z,12.24
2019-03-15T15:35:32.092Z,12.23
2019-03-15T15:38:01.182Z,12.22
2019-03-15T15:40:30.116Z,12.21
2019-03-15T15:42:59.240Z,12.21
2019-03-15T15:45:29.837Z,12.20
2019-03-15T15:47:58.940Z,12.19
2019-03-15T15:50:27.942Z,12.19
2019-03-15T15:52:57.246Z,12.17
2019-03-15T15:55:26.453Z,12.18
2019-03-15T15:57:55.448Z,12.17
2019-03-15T16:00:24.561Z,12.17
2019-03-15T16:02:53.476Z,12.14
2019-03-15T16:05:22.362Z,12.14
2019-03-15T16:07:51.482Z,12.14
2019-03-15T16:10:20.465Z,12.12
2019-03-15T16:12:49.397Z,12.12
2019-03-15T16:15:18.529Z,12.10
2019-03-15T16:18:06.498Z,12.09
2019-03-15T16:20:35.700Z,12.09
2019-03-15T16:23:04.706Z,12.08
2019-03-15T16:25:33.598Z,12.08
2019-03-15T16:28:02.440Z,12.07
2019-03-15T16:30:31.741Z,12.06
2019-03-15T16:33:00.556Z,12.05
2019-03-15T16:35:29.376Z,12.05
2019-03-15T16:37:58.246Z,12.04
2019-03-15T16:40:27.155Z,12.03
2019-03-15T16:42:56.163Z,12.02
2019-03-15T16:45:25.138Z,12.01
2019-03-15T16:47:54.067Z,12.00
2019-03-15T16:50:23.033Z,12.01
2019-03-15T16:52:52.226Z,11.99
2019-03-15T16:55:21.222Z,11.99
2019-03-15T16:57:50.175Z,11.97
2019-03-15T17:00:19.042Z,11.97
2019-03-15T17:02:47.942Z,11.97
2019-03-15T17:05:17.071Z,11.97
2019-03-15T17:07:47.544Z,11.95
2019-03-15T17:10:16.900Z,11.95
2019-03-15T17:12:45.894Z,11.94
2019-03-15T17:15:14.939Z,11.93
2019-03-15T17:17:43.916Z,11.93
2019-03-15T17:20:12.906Z,11.92
2019-03-15T17:22:41.956Z,11.92
2019-03-15T17:25:11.010Z,11.91
2019-03-15T17:27:39.988Z,11.90
2019-03-15T17:30:10.994Z,11.90
2019-03-15T17:32:40.047Z,11.89
2019-03-15T17:35:10.135Z,11.88
2019-03-15T17:37:39.095Z,11.88
2019-03-15T17:40:09.806Z,11.86
2019-03-15T17:42:38.994Z,11.85
2019-03-15T17:45:08.306Z,11.85
2019-03-15T17:47:37.136Z,11.86
2019-03-15T17:50:07.568Z,11.84
2019-03-15T17:52:36.555Z,11.83
2019-03-15T17:55:05.826Z,11.83
2019-03-15T17:57:35.062Z,11.83
2019-03-15T18:00:13.697Z,11.81
2019-03-15T18:02:42.627Z,11.81
2019-03-15T18:05:11.605Z,11.80
2019-03-15T18:07:40.647Z,11.81
2019-03-15T18:10:09.607Z,11.79
2019-03-15T18:12:38.675Z,11.79
2019-03-15T18:15:07.622Z,11.77
2019-03-15T18:17:36.630Z,11.77
2019-03-15T18:20:05.785Z,11.76
2019-03-15T18:22:34.779Z,11.76
2019-03-15T18:25:03.827Z,11.75
2019-03-15T18:27:32.809Z,11.74
2019-03-15T18:30:01.773Z,11.74
2019-03-15T18:32:30.819Z,11.73
2019-03-15T18:34:59.867Z,11.71
2019-03-15T18:37:29.056Z,11.72
2019-03-15T18:39:58.064Z,11.71
2019-03-15T18:42:27.071Z,11.70
2019-03-15T18:44:56.175Z,11.70
2019-03-15T18:47:25.093Z,11.69
2019-03-15T18:49:54.282Z,11.67
2019-03-15T18:52:23.410Z,11.66
2019-03-15T18:54:52.366Z,11.64
2019-03-15T18:57:21.245Z,11.63
2019-03-15T18:59:50.234Z,11.63
2019-03-15T19:02:19.448Z,11.62
2019-03-15T19:05:07.497Z,11.61
2019-03-15T19:07:36.527Z,11.59
2019-03-15T19:10:05.597Z,11.59
2019-03-15T19:12:34.570Z,11.58
2019-03-15T19:15:03.565Z,11.57
2019-03-15T19:17:32.514Z,11.56
2019-03-15T19:20:01.554Z,11.56
2019-03-15T19:22:30.566Z,11.54
2019-03-15T19:24:59.587Z,11.53
2019-03-15T19:27:28.581Z,11.53
2019-03-15T19:29:57.686Z,11.50
2019-03-15T19:32:26.645Z,11.50
2019-03-15T19:34:55.546Z,11.48
2019-03-15T19:37:24.417Z,11.48
2019-03-15T19:39:53.650Z,11.47
2019-03-15T19:42:22.756Z,11.47
2019-03-15T19:44:51.676Z,11.45
2019-03-15T19:47:20.664Z,11.44
2019-03-15T19:49:49.955Z,11.43
2019-03-15T19:52:18.775Z,11.42
2019-03-15T19:54:59.783Z,11.41
2019-03-15T19:57:18.541Z,11.40
2019-03-15T19:59:47.543Z,11.39
2019-03-15T20:02:16.745Z,11.38
2019-03-15T20:04:45.801Z,11.37
2019-03-15T20:07:14.808Z,11.36
2019-03-15T20:09:43.792Z,11.35
2019-03-15T20:12:12.808Z,11.34
2019-03-15T20:14:41.787Z,11.33
2019-03-15T20:17:10.626Z,11.33
2019-03-15T20:19:39.550Z,11.31
2019-03-15T20:22:08.563Z,11.30
2019-03-15T20:24:37.446Z,11.28
2019-03-15T20:27:06.360Z,11.27
2019-03-15T20:29:35.323Z,11.26
2019-03-15T20:32:04.441Z,11.25
2019-03-15T20:34:53.918Z,11.24
2019-03-15T20:37:22.994Z,11.25
2019-03-15T20:39:52.013Z,11.23
2019-03-15T20:42:20.979Z,11.22
2019-03-15T20:44:50.125Z,11.21
2019-03-15T20:47:19.106Z,11.21
2019-03-15T20:49:48.074Z,11.19
2019-03-15T20:52:17.029Z,11.18
2019-03-15T20:54:45.969Z,11.17
2019-03-15T20:57:14.759Z,11.17
2019-03-15T20:59:43.661Z,11.15
2019-03-15T21:02:12.578Z,11.14
2019-03-15T21:04:41.570Z,11.14
2019-03-15T21:07:10.586Z,11.13
2019-03-15T21:09:39.613Z,11.13
2019-03-15T21:12:08.705Z,11.10
2019-03-15T21:14:37.589Z,11.11
2019-03-15T21:17:06.605Z,11.08
2019-03-15T21:19:35.637Z,11.08
2019-03-15T21:22:04.578Z,11.07
2019-03-15T21:24:33.609Z,11.05
2019-03-15T21:27:02.740Z,11.05
2019-03-15T21:29:31.800Z,11.02
2019-03-15T21:32:00.770Z,11.00
2019-03-15T21:34:29.776Z,10.99
2019-03-15T21:36:58.756Z,10.99
2019-03-15T21:39:27.795Z,10.97
2019-03-15T21:41:56.743Z,10.96
2019-03-15T21:44:25.881Z,10.95
2019-03-15T21:46:54.761Z,10.96
2019-03-15T21:49:23.793Z,10.95
2019-03-15T21:51:52.789Z,10.93
2019-03-15T21:54:21.889Z,10.91
2019-03-15T21:56:50.917Z,10.90
2019-03-15T21:59:20.137Z,10.89
2019-03-15T22:01:49.175Z,10.88
2019-03-15T22:04:18.564Z,10.88
2019-03-15T22:06:47.581Z,10.87
2019-03-15T22:09:16.587Z,10.86
2019-03-15T22:11:45.554Z,10.86
2019-03-15T22:14:14.549Z,10.84
2019-03-15T22:16:43.527Z,10.83
2019-03-15T22:19:12.519Z,10.83
2019-03-15T22:21:41.505Z,10.81
2019-03-15T22:24:10.683Z,10.80
2019-03-15T22:26:39.853Z,10.78
2019-03-15T22:29:08.740Z,10.77
2019-03-15T22:31:37.714Z,10.75
2019-03-15T22:34:06.677Z,10.75
2019-03-15T22:36:35.586Z,10.76
2019-03-15T22:39:05.259Z,10.74
2019-03-15T22:41:35.744Z,10.73
2019-03-15T22:44:05.038Z,10.72
2019-03-15T22:46:34.072Z,10.71
2019-03-15T22:49:02.975Z,10.70
2019-03-15T22:51:31.813Z,10.68
2019-03-15T22:54:00.768Z,10.68
2019-03-15T22:56:29.812Z,10.68
2019-03-15T22:58:58.819Z,10.66
2019-03-15T23:01:30.358Z,10.66
2019-03-15T23:03:58.414Z,10.65
2019-03-15T23:06:27.440Z,10.66
2019-03-15T23:08:56.575Z,10.66
2019-03-15T23:11:25.771Z,10.64
2019-03-15T23:13:54.953Z,10.63
2019-03-15T23:16:23.887Z,10.62
2019-03-15T23:19:11.997Z,10.62
2019-03-15T23:21:40.987Z,10.60
2019-03-15T23:24:10.052Z,10.60
2019-03-15T23:26:38.923Z,10.59
2019-03-15T23:29:08.072Z,10.58
2019-03-15T23:31:43.482Z,10.58
2019-03-15T23:34:07.738Z,10.58
2019-03-15T23:36:36.750Z,10.57
2019-03-15T23:39:07.189Z,10.57
2019-03-15T23:41:36.213Z,10.56
2019-03-15T23:44:05.113Z,10.56
2019-03-15T23:46:34.014Z,10.54
2019-03-15T23:49:03.046Z,10.54
2019-03-15T23:51:32.091Z,10.54
2019-03-15T23:54:01.055Z,10.54
2019-03-15T23:56:29.948Z,10.53
2019-03-15T23:58:59.170Z,10.52
